Time;durP1;ratioP1;P1;durP2;ratioP2;P2;SDS_P1;SDS_P2;PMS_P1;PMS_P2;Temp;Humidity;BMP_temperature;BMP_pressure;BME280_temperature;BME280_humidity;BME280_pressure;Samples;Min_cycle;Max_cycle;Signal;HPM_P1;HPM_P2
2021/06/26 00:00:59;;;;;;;0.93;0.93;;;25.60;46.20;;;29.40;30.97;101615.63;5133322;27;20074;-53
2021/06/26 00:03:28;;;;;;;2.17;1.08;;;25.60;46.20;;;29.33;30.87;101609.94;5114970;28;20043;-54
2021/06/26 00:05:55;;;;;;;1.00;1.00;;;25.60;46.30;;;29.38;31.23;101618.47;5133452;28;20042;-52
2021/06/26 00:08:22;;;;;;;1.00;1.00;;;25.60;46.20;;;29.35;31.04;101616.06;5133954;28;20534;-51
2021/06/26 00:10:49;;;;;;;1.10;1.00;;;25.60;46.30;;;29.34;31.27;101621.59;5133214;28;20051;-51
2021/06/26 00:13:16;;;;;;;1.13;1.13;;;25.60;46.30;;;29.33;31.22;101620.72;5133910;28;20085;-52
2021/06/26 00:15:43;;;;;;;0.80;0.80;;;25.60;46.30;;;29.35;31.18;101625.97;5133414;28;20054;-50
2021/06/26 00:18:09;;;;;;;1.15;1.05;;;25.60;46.30;;;29.34;31.03;101618.88;5133148;28;20071;-50
2021/06/26 00:20:35;;;;;;;1.20;1.10;;;25.60;46.30;;;29.31;31.21;101614.59;5133193;28;20454;-51
2021/06/26 00:23:01;;;;;;;0.88;0.88;;;25.60;46.40;;;29.29;31.03;101610.34;5113252;28;20044;-50
2021/06/26 00:25:27;;;;;;;1.38;1.00;;;25.50;46.30;;;29.31;30.96;101608.38;5133142;28;20407;-51
2021/06/26 00:27:53;;;;;;;1.10;1.00;;;25.50;46.30;;;29.30;30.90;101612.91;5133084;28;20043;-46
2021/06/26 00:30:20;;;;;;;1.13;1.02;;;25.50;46.40;;;29.26;31.23;101613.31;5133570;28;20050;-49
2021/06/26 00:32:46;;;;;;;1.10;0.98;;;25.50;46.40;;;29.27;31.25;101623.06;5114677;28;20043;-50
2021/06/26 00:35:13;;;;;;;1.27;1.17;;;25.50;46.40;;;29.26;30.94;101616.84;5133589;28;20047;-50
2021/06/26 00:37:41;;;;;;;1.02;1.00;;;25.50;46.40;;;29.23;31.24;101618.94;5133028;28;20043;-52
2021/06/26 00:40:09;;;;;;;1.00;0.90;;;25.50;46.50;;;29.24;31.27;101616.13;5132885;28;20515;-50
2021/06/26 00:42:39;;;;;;;0.88;0.88;;;25.50;46.50;;;29.23;31.29;101625.19;5132923;28;20435;-48
2021/06/26 00:45:11;;;;;;;1.13;1.07;;;25.40;46.40;;;29.21;31.20;101619.09;5133710;28;20039;-54
2021/06/26 00:47:38;;;;;;;0.90;0.90;;;25.40;46.40;;;29.17;31.44;101615.81;5133257;28;20051;-52
2021/06/26 00:50:15;;;;;;;1.20;1.10;;;25.40;46.50;;;29.17;31.24;101612.25;5132939;28;20047;-49
2021/06/26 00:52:41;;;;;;;1.00;0.90;;;25.40;46.50;;;29.17;31.21;101618.50;5132855;28;20058;-54
2021/06/26 00:55:09;;;;;;;1.23;1.13;;;25.40;46.50;;;29.16;31.46;101619.44;5132765;28;20039;-54
2021/06/26 00:57:35;;;;;;;1.20;1.10;;;25.40;46.50;;;29.17;31.19;101626.56;5112792;28;20405;-51
2021/06/26 01:00:04;;;;;;;1.05;1.00;;;25.40;46.60;;;29.14;31.35;101618.72;5114806;28;20074;-51
2021/06/26 01:02:30;;;;;;;1.05;1.05;;;25.40;46.60;;;29.15;31.51;101617.75;5132602;28;20492;-51
2021/06/26 01:04:56;;;;;;;0.80;0.80;;;25.40;46.60;;;29.13;31.24;101613.47;5132723;28;20100;-50
2021/06/26 01:07:22;;;;;;;0.98;0.98;;;25.40;46.70;;;29.14;31.38;101612.50;5132755;28;20134;-51
2021/06/26 01:09:48;;;;;;;1.77;0.90;;;25.40;46.60;;;29.12;31.41;101606.34;5132875;28;20054;-49
2021/06/26 01:12:13;;;;;;;1.00;1.00;;;25.40;46.60;;;29.09;31.19;101607.50;5133840;27;20104;-49
2021/06/26 01:14:40;;;;;;;0.90;0.90;;;25.30;46.60;;;29.08;31.52;101603.06;5136032;28;20126;-52
2021/06/26 01:17:08;;;;;;;1.50;1.15;;;25.30;46.60;;;29.08;31.38;101608.47;5136147;28;20515;-52
2021/06/26 01:19:36;;;;;;;1.15;0.85;;;25.30;46.60;;;29.08;31.59;101608.47;5136288;28;20053;-52
2021/06/26 01:22:06;;;;;;;1.10;1.00;;;25.40;46.70;;;29.06;31.22;101605.06;5135955;28;20058;-51
2021/06/26 01:24:37;;;;;;;1.00;0.90;;;25.30;46.70;;;29.03;31.41;101608.00;5135885;28;20048;-55
2021/06/26 01:27:04;;;;;;;1.05;0.98;;;25.30;47.20;;;29.06;31.42;101615.81;5117775;28;20058;-49
2021/06/26 01:29:33;;;;;;;1.05;0.90;;;25.30;46.70;;;29.04;31.40;101611.56;5135941;28;20051;-48
2021/06/26 01:31:59;;;;;;;1.73;1.00;;;25.30;46.80;;;29.01;31.47;101608.13;5135809;28;20123;-48
2021/06/26 01:34:25;;;;;;;1.00;0.90;;;25.30;46.80;;;29.02;31.33;101612.53;5136175;28;20459;-51
2021/06/26 01:36:51;;;;;;;1.10;1.10;;;25.30;46.80;;;29.02;31.28;101604.47;5135398;28;20047;-53
2021/06/26 01:39:18;;;;;;;1.00;1.00;;;25.20;46.80;;;29.01;31.58;101601.91;5135619;28;20047;-53
2021/06/26 01:41:44;;;;;;;0.73;0.73;;;25.20;46.70;;;28.97;31.78;101597.78;5135524;28;20058;-54
2021/06/26 01:44:09;;;;;;;1.27;1.17;;;25.20;46.80;;;29.00;31.44;101610.94;5135648;28;20047;-51
2021/06/26 01:46:38;;;;;;;0.88;0.88;;;25.20;46.80;;;29.00;31.38;101616.34;5135563;28;20092;-50
2021/06/26 01:49:10;;;;;;;1.40;0.98;;;25.20;46.80;;;28.94;31.74;101606.94;5135556;28;20039;-48
2021/06/26 01:51:37;;;;;;;0.90;0.90;;;25.20;46.90;;;28.97;31.48;101609.38;5136129;28;20043;-47
2021/06/26 01:54:08;;;;;;;0.85;0.85;;;25.20;46.80;;;28.92;31.62;101610.75;5116092;28;20069;-49
2021/06/26 01:56:36;;;;;;;1.23;1.20;;;25.20;46.90;;;28.97;31.67;101611.22;5135742;28;20054;-53
2021/06/26 01:59:02;;;;;;;0.93;0.93;;;25.20;46.90;;;28.94;31.65;101606.09;5116116;28;20474;-51
2021/06/26 02:01:28;;;;;;;0.93;0.93;;;25.20;46.90;;;28.93;31.67;101604.38;5135385;28;20489;-54
2021/06/26 02:03:53;;;;;;;0.90;0.90;;;25.20;47.00;;;28.91;31.75;101604.50;5135489;28;20039;-52
2021/06/26 02:06:19;;;;;;;1.13;1.00;;;25.20;46.90;;;28.92;31.79;101608.06;5135529;28;20543;-52
2021/06/26 02:08:45;;;;;;;0.80;0.80;;;25.20;47.00;;;28.90;31.68;101613.59;5135764;28;20047;-49
2021/06/26 02:11:11;;;;;;;1.27;1.15;;;25.20;47.00;;;28.86;31.74;101598.66;5135102;28;20058;-51
2021/06/26 02:13:36;;;;;;;0.95;0.95;;;25.10;46.90;;;28.89;31.49;101606.50;5135108;28;20055;-54
2021/06/26 02:16:02;;;;;;;0.80;0.80;;;25.10;46.90;;;28.89;31.49;101611.88;5135292;28;20051;-52
2021/06/26 02:18:28;;;;;;;1.15;1.10;;;25.10;46.90;;;28.85;31.74;101613.09;5135156;28;20444;-49
2021/06/26 02:20:54;;;;;;;0.93;0.90;;;25.10;46.90;;;28.87;31.91;101621.03;5134918;28;20055;-48
2021/06/26 02:23:20;;;;;;;1.08;1.05;;;25.10;47.00;;;28.81;31.66;101609.81;5134958;27;20059;-48
2021/06/26 02:25:46;;;;;;;1.10;1.00;;;25.20;47.00;;;28.82;31.73;101611.53;5135644;28;20051;-53
2021/06/26 02:28:11;;;;;;;2.00;1.27;;;25.10;47.00;;;28.85;31.55;101620.31;5116079;28;20051;-53
2021/06/26 02:30:37;;;;;;;0.90;0.90;;;25.10;47.00;;;28.83;31.81;101621.34;5134795;28;20054;-53
2021/06/26 02:33:03;;;;;;;0.90;0.90;;;25.10;47.00;;;28.79;31.70;101619.00;5134957;28;20136;-51
2021/06/26 02:35:29;;;;;;;0.85;0.85;;;25.10;47.10;;;28.81;31.54;101622.44;5134894;28;20043;-54
2021/06/26 02:37:55;;;;;;;1.00;0.95;;;25.10;47.10;;;28.80;31.60;101618.00;5116745;28;20117;-51
2021/06/26 02:40:21;;;;;;;0.80;0.80;;;25.10;47.10;;;28.77;31.59;101612.91;5134941;28;20051;-53
2021/06/26 02:42:47;;;;;;;0.98;0.98;;;25.00;47.00;;;28.79;31.87;101614.47;5135049;28;20576;-50
2021/06/26 02:45:13;;;;;;;0.90;0.90;;;25.00;47.00;;;28.75;32.10;101610.34;5134815;28;20058;-45
2021/06/26 02:47:39;;;;;;;1.00;1.00;;;25.00;47.10;;;28.77;31.71;101616.44;5134907;28;20104;-48
2021/06/26 02:50:07;;;;;;;1.00;1.00;;;25.00;47.10;;;28.76;31.88;101608.50;5134571;28;20480;-51
2021/06/26 02:52:33;;;;;;;1.05;1.05;;;25.00;47.10;;;28.77;31.88;101612.91;5134563;28;20082;-49
2021/06/26 02:54:59;;;;;;;0.98;0.98;;;25.00;47.10;;;28.76;31.95;101614.72;5134444;28;20095;-51
2021/06/26 02:57:25;;;;;;;1.73;1.20;;;25.00;47.10;;;28.73;31.80;101614.97;5135035;28;20043;-51
2021/06/26 02:59:51;;;;;;;1.58;1.00;;;25.00;47.10;;;28.75;32.06;101622.94;5134382;28;20043;-52
2021/06/26 03:02:17;;;;;;;1.00;1.00;;;25.00;47.10;;;28.73;32.05;101616.84;5116028;28;20051;-50
2021/06/26 03:04:43;;;;;;;1.00;1.00;;;25.00;47.10;;;28.73;32.00;101617.69;5134313;28;20058;-48
2021/06/26 03:07:09;;;;;;;1.17;1.08;;;25.00;47.10;;;28.72;32.04;101621.38;5134391;28;20043;-54
2021/06/26 03:09:36;;;;;;;1.10;1.10;;;25.00;47.10;;;28.70;32.08;101625.16;5134938;28;20054;-49
2021/06/26 03:12:05;;;;;;;1.33;1.23;;;25.00;47.10;;;28.71;32.00;101626.88;5115153;28;20054;-53
2021/06/26 03:14:31;;;;;;;1.10;1.10;;;25.00;47.20;;;28.71;32.02;101626.88;5134127;28;20047;-53
2021/06/26 03:16:57;;;;;;;0.98;0.98;;;25.00;47.10;;;28.70;32.08;101634.09;5134455;28;20408;-48
2021/06/26 03:19:23;;;;;;;1.10;1.00;;;25.00;47.10;;;28.70;31.69;101634.09;5134083;28;20046;-49
2021/06/26 03:21:49;;;;;;;0.85;0.85;;;25.00;47.20;;;28.69;31.75;101627.00;5133834;28;20068;-49
2021/06/26 03:24:14;;;;;;;0.90;0.90;;;25.00;47.20;;;28.69;31.93;101631.53;5134353;28;20051;-48
2021/06/26 03:26:40;;;;;;;1.35;1.10;;;25.00;47.20;;;28.70;32.05;101646.69;5133757;28;20129;-50
2021/06/26 03:29:06;;;;;;;1.00;1.00;;;25.00;47.10;;;28.69;32.02;101636.91;5134099;28;20051;-48
2021/06/26 03:31:32;;;;;;;1.17;0.90;;;25.00;47.20;;;28.67;31.76;101636.16;5133887;28;20050;-53
2021/06/26 03:33:59;;;;;;;0.90;0.90;;;25.00;47.20;;;28.66;31.94;101637.16;5133728;27;20035;-49
2021/06/26 03:36:25;;;;;;;1.17;1.15;;;25.00;47.10;;;28.70;31.75;101639.50;5133749;28;20047;-49
2021/06/26 03:38:51;;;;;;;0.90;0.90;;;25.00;47.10;;;28.65;31.94;101633.59;5133731;28;20063;-47
2021/06/26 03:41:19;;;;;;;0.93;0.93;;;25.00;47.10;;;28.67;31.68;101638.84;5114588;28;20047;-53
2021/06/26 03:43:44;;;;;;;1.02;1.02;;;25.00;47.10;;;28.66;32.07;101646.09;5133770;28;20043;-54
2021/06/26 03:46:10;;;;;;;1.00;1.00;;;25.00;47.10;;;28.68;32.02;101645.97;5133544;28;20040;-47
2021/06/26 03:48:36;;;;;;;1.20;1.10;;;25.00;47.10;;;28.70;31.90;101654.75;5133987;28;20074;-53
2021/06/26 03:51:02;;;;;;;0.98;0.90;;;25.00;47.10;;;28.67;31.88;101653.19;5133567;28;20134;-50
2021/06/26 03:53:28;;;;;;;1.17;1.08;;;25.00;47.10;;;28.68;31.90;101648.66;5133671;28;20059;-53
2021/06/26 03:55:55;;;;;;;1.15;1.10;;;25.00;47.10;;;28.70;31.74;101652.06;5133581;28;20095;-50
2021/06/26 03:58:26;;;;;;;0.90;0.90;;;25.00;47.10;;;28.69;32.08;101651.22;5133542;28;20046;-48
2021/06/26 04:00:52;;;;;;;;;;;25.00;47.10;;;28.79;31.86;101662.94;5133922;28;20076;-51
2021/06/26 04:03:18;;;;;;;0.90;0.90;;;25.00;47.00;;;28.76;31.85;101657.78;5133526;28;19919;-53
2021/06/26 04:05:44;;;;;;;0.88;0.88;;;25.00;47.00;;;28.76;31.60;101657.78;5133518;28;20047;-47
2021/06/26 04:08:11;;;;;;;1.17;1.08;;;25.10;47.00;;;28.76;31.74;101660.47;5133336;28;20062;-51
2021/06/26 04:10:37;;;;;;;1.10;1.00;;;25.10;46.90;;;28.78;31.85;101660.34;5133222;28;20043;-49
2021/06/26 04:13:04;;;;;;;1.00;0.90;;;25.10;46.90;;;28.75;31.60;101656.09;5133686;28;20039;-52
2021/06/26 04:15:30;;;;;;;0.90;0.90;;;25.10;47.00;;;28.77;31.95;101662.22;5133705;28;20472;-50
2021/06/26 04:17:56;;;;;;;1.27;0.98;;;25.10;46.90;;;28.76;32.06;101651.56;5133925;28;20056;-53
2021/06/26 04:20:22;;;;;;;1.00;1.00;;;25.10;46.90;;;28.76;31.82;101652.41;5133225;28;20039;-50
2021/06/26 04:22:48;;;;;;;0.90;0.90;;;25.10;47.00;;;28.71;31.74;101646.56;5133358;28;20404;-49
2021/06/26 04:25:15;;;;;;;0.95;0.95;;;25.10;47.00;;;28.76;31.89;101659.63;5133246;28;20043;-51
2021/06/26 04:27:41;;;;;;;1.02;0.93;;;25.10;47.00;;;28.75;31.80;101655.22;5115023;28;20059;-47
2021/06/26 04:30:08;;;;;;;0.90;0.90;;;25.10;47.00;;;28.74;31.68;101661.59;5114631;28;20039;-52
2021/06/26 04:32:36;;;;;;;1.00;1.00;;;25.00;47.00;;;28.76;31.67;101667.72;5133110;28;20051;-50
2021/06/26 04:35:04;;;;;;;1.00;1.00;;;25.00;46.90;;;28.76;31.80;101665.03;5133093;28;20048;-46
2021/06/26 04:37:30;;;;;;;1.15;1.05;;;25.00;46.90;;;28.76;31.68;101660.47;5133084;28;20086;-45
2021/06/26 04:39:56;;;;;;;1.33;1.02;;;25.00;46.90;;;28.72;31.90;101656.34;5133010;28;20063;-48
2021/06/26 04:42:22;;;;;;;1.13;1.10;;;25.00;47.00;;;28.74;31.91;101659.75;5112740;28;20052;-49
2021/06/26 04:44:48;;;;;;;0.95;0.95;;;25.00;46.90;;;28.73;31.69;101660.72;5133247;28;20045;-48
2021/06/26 04:47:14;;;;;;;0.95;0.88;;;25.10;47.00;;;28.74;31.76;101662.47;5134797;27;20043;-52
2021/06/26 04:49:40;;;;;;;0.88;0.88;;;25.00;46.90;;;28.76;31.85;101670.41;5117105;28;20047;-48
2021/06/26 04:52:08;;;;;;;1.00;1.00;;;25.00;47.00;;;28.73;32.07;101671.50;5136350;28;20039;-46
2021/06/26 04:54:35;;;;;;;1.00;1.00;;;25.00;46.90;;;28.74;31.97;101667.00;5136324;28;20096;-48
2021/06/26 04:57:04;;;;;;;1.25;0.98;;;25.00;46.90;;;28.72;31.75;101674.31;5136531;28;20365;-50
2021/06/26 04:59:30;;;;;;;1.00;0.98;;;25.10;46.90;;;28.78;31.57;101671.97;5136618;28;20047;-51
2021/06/26 05:01:56;;;;;;;1.30;1.20;;;25.10;46.90;;;28.88;31.91;101673.91;5136181;28;20558;-50
2021/06/26 05:04:22;;;;;;;1.00;1.00;;;25.20;46.90;;;28.96;31.44;101668.75;5136601;28;20039;-48
2021/06/26 05:06:48;;;;;;;0.90;0.90;;;25.40;46.80;;;29.04;31.68;101670.81;5136060;28;20051;-51
2021/06/26 05:09:14;;;;;;;1.00;1.00;;;25.40;46.50;;;29.15;31.49;101666.22;5136144;28;20058;-46
2021/06/26 05:11:39;;;;;;;0.80;0.80;;;25.50;46.30;;;29.22;31.45;101671.97;5135840;28;20138;-47
2021/06/26 05:14:05;;;;;;;0.85;0.85;;;25.60;46.10;;;29.34;31.27;101673.59;5135973;28;20042;-53
2021/06/26 05:16:31;;;;;;;0.90;0.90;;;25.70;46.10;;;29.39;30.85;101670.53;5136079;28;20514;-46
2021/06/26 05:18:57;;;;;;;0.88;0.88;;;25.70;45.90;;;29.48;30.63;101676.97;5135893;28;20502;-48
2021/06/26 05:21:23;;;;;;;0.85;0.85;;;25.80;45.80;;;29.56;30.56;101669.06;5135882;28;20039;-46
2021/06/26 05:23:49;;;;;;;1.10;1.00;;;25.80;45.70;;;29.64;30.49;101681.91;5136013;28;20051;-47
2021/06/26 05:26:15;;;;;;;1.00;1.00;;;25.90;45.70;;;29.69;30.49;101674.25;5117417;28;20561;-47
2021/06/26 05:28:41;;;;;;;1.35;1.02;;;25.90;45.60;;;29.72;30.48;101672.16;5136135;28;20047;-49
2021/06/26 05:31:07;;;;;;;1.10;1.10;;;25.90;45.60;;;29.73;30.61;101676.53;5117530;28;20046;-45
2021/06/26 05:33:33;;;;;;;1.08;0.98;;;25.90;45.50;;;29.72;30.40;101676.66;5115409;28;20047;-47
2021/06/26 05:35:58;;;;;;;1.10;1.00;;;25.90;45.60;;;29.73;30.58;101683.78;5114530;28;20044;-47
2021/06/26 05:38:24;;;;;;;1.00;1.00;;;25.90;45.70;;;29.68;30.65;101681.47;5135977;28;20069;-48
2021/06/26 05:40:50;;;;;;;1.20;0.90;;;25.90;45.70;;;29.71;30.48;101694.69;5135713;28;20052;-51
2021/06/26 05:43:17;;;;;;;0.90;0.90;;;25.80;45.70;;;29.69;30.60;101690.44;5135622;28;20399;-46
2021/06/26 05:45:43;;;;;;;0.80;0.80;;;25.80;46.20;;;29.68;30.40;101686.88;5135526;28;20059;-47
2021/06/26 05:48:09;;;;;;;1.02;1.02;;;25.80;45.70;;;29.65;30.44;101687.13;5135584;28;20045;-50
2021/06/26 05:50:35;;;;;;;1.08;1.08;;;25.80;45.70;;;29.68;30.29;101694.09;5135517;28;20047;-51
2021/06/26 05:53:01;;;;;;;0.90;0.90;;;25.80;46.30;;;29.68;30.49;101686.03;5135497;28;20465;-48
2021/06/26 05:55:29;;;;;;;1.08;1.00;;;25.80;45.80;;;29.74;30.65;101696.28;5135326;28;20043;-49
2021/06/26 05:57:55;;;;;;;1.30;1.00;;;25.90;45.80;;;29.83;30.57;101700.03;5115965;28;20084;-49
2021/06/26 06:00:22;;;;;;;1.38;1.27;;;26.00;45.60;;;29.89;30.33;101697.66;5135324;28;20445;-48
2021/06/26 06:02:49;;;;;;;1.10;1.00;;;26.10;45.40;;;29.97;30.23;101693.44;5135314;28;20085;-45
2021/06/26 06:05:15;;;;;;;0.90;0.90;;;26.20;45.40;;;30.03;30.39;101692.91;5135406;28;20445;-52
2021/06/26 06:07:45;;;;;;;1.00;1.00;;;26.20;45.20;;;30.06;30.21;101687.25;5135671;28;20039;-49
2021/06/26 06:10:15;;;;;;;0.70;0.70;;;26.20;45.20;;;30.06;30.11;101682.69;5135222;28;20059;-48
2021/06/26 06:12:41;;;;;;;0.60;0.60;;;26.20;45.10;;;30.17;29.98;101683.56;5135095;28;20078;-53
2021/06/26 06:15:10;;;;;;;0.82;0.82;;;26.30;45.10;;;30.17;29.89;101675.47;5135083;28;20504;-49
2021/06/26 06:17:36;;;;;;;1.00;0.90;;;26.30;45.10;;;30.21;29.76;101683.19;5135090;28;20438;-53
2021/06/26 06:20:06;;;;;;;1.00;1.00;;;26.30;45.10;;;30.23;29.94;101688.44;5135079;28;20115;-51
2021/06/26 06:22:33;;;;;;;0.95;0.95;;;26.30;45.00;;;30.25;29.89;101687.28;5134933;28;20051;-50
2021/06/26 06:24:59;;;;;;;0.90;0.90;;;26.40;45.00;;;30.30;29.92;101698.56;5135000;28;20477;-50
2021/06/26 06:27:25;;;;;;;0.93;0.93;;;26.40;44.90;;;30.36;29.81;101699.00;5135276;28;20043;-49
2021/06/26 06:29:51;;;;;;;0.90;0.90;;;26.40;44.80;;;30.39;29.83;101696.91;5134975;28;20051;-51
2021/06/26 06:32:16;;;;;;;0.85;0.85;;;26.50;44.80;;;30.44;29.46;101710.00;5135120;28;20180;-52
2021/06/26 06:34:42;;;;;;;0.88;0.88;;;26.50;44.70;;;30.44;29.61;101696.50;5098588;28;20489;-49
2021/06/26 06:37:09;;;;;;;1.00;0.95;;;26.50;44.60;;;30.48;29.56;101698.75;5134853;28;20050;-46
2021/06/26 06:39:36;;;;;;;1.27;1.17;;;26.50;44.60;;;30.47;29.46;101698.91;5134735;28;20061;-53
2021/06/26 06:42:04;;;;;;;1.00;1.00;;;26.50;44.50;;;30.51;29.62;101707.59;5116096;28;20500;-50
2021/06/26 06:44:30;;;;;;;1.27;0.80;;;26.60;44.60;;;30.52;29.45;101707.44;5099311;28;20104;-48
2021/06/26 06:46:56;;;;;;;0.90;0.90;;;26.60;44.60;;;30.55;29.57;101704.47;5134436;28;20055;-46
2021/06/26 06:49:22;;;;;;;0.70;0.70;;;26.60;44.50;;;30.56;29.45;101708.03;5134494;28;20054;-49
2021/06/26 06:51:47;;;;;;;1.15;1.05;;;26.60;44.50;;;30.58;29.48;101714.13;5134339;28;20061;-49
2021/06/26 06:54:13;;;;;;;0.80;0.80;;;26.60;44.50;;;30.60;29.25;101706.75;5134542;28;20153;-49
2021/06/26 06:56:39;;;;;;;0.80;0.80;;;26.70;44.40;;;30.66;29.33;101714.31;5134600;28;20050;-52
2021/06/26 06:59:04;;;;;;;0.77;0.77;;;26.70;44.30;;;30.71;29.24;101713.88;5134767;28;20051;-51
2021/06/26 07:01:30;;;;;;;0.80;0.80;;;26.80;44.30;;;30.72;29.33;101713.72;5134421;28;20408;-46
2021/06/26 07:03:56;;;;;;;1.00;1.00;;;26.80;44.20;;;30.74;29.25;101717.16;5134616;28;20392;-48
2021/06/26 07:06:22;;;;;;;0.85;0.85;;;26.80;44.10;;;30.79;29.16;101719.41;5134863;28;20416;-46
2021/06/26 07:08:47;;;;;;;0.80;0.80;;;26.90;44.10;;;30.81;29.14;101718.28;5134115;27;20373;-46
2021/06/26 07:11:13;;;;;;;0.90;0.90;;;26.90;44.10;;;30.84;28.86;101725.28;5133761;28;20065;-45
2021/06/26 07:13:39;;;;;;;0.98;0.98;;;26.90;44.00;;;30.87;29.02;101721.44;5134067;28;20385;-46
2021/06/26 07:16:05;;;;;;;1.23;0.90;;;26.90;44.00;;;30.88;28.93;101718.59;5134690;28;20408;-47
2021/06/26 07:18:31;;;;;;;0.70;0.70;;;26.90;43.90;;;30.87;29.00;101716.03;5134242;28;20047;-47
2021/06/26 07:20:57;;;;;;;0.98;0.98;;;27.00;44.00;;;30.89;28.98;101723.00;5134478;28;20049;-49
2021/06/26 07:23:22;;;;;;;0.90;0.90;;;27.00;43.90;;;30.97;28.80;101727.72;5134440;28;20043;-47
2021/06/26 07:25:48;;;;;;;0.98;0.90;;;27.10;43.90;;;30.96;28.83;101718.78;5134276;28;20064;-48
2021/06/26 07:28:14;;;;;;;0.70;0.70;;;27.10;43.80;;;31.00;28.83;101724.75;5133958;28;20051;-46
2021/06/26 07:30:40;;;;;;;0.80;0.80;;;27.10;43.80;;;31.00;28.88;101719.34;5133760;28;20481;-47
2021/06/26 07:33:05;;;;;;;0.90;0.90;;;27.10;43.70;;;31.01;28.83;101726.47;5114314;28;20077;-48
2021/06/26 07:35:31;;;;;;;0.80;0.80;;;27.10;43.70;;;31.07;28.73;101719.63;5133973;28;20043;-49
2021/06/26 07:37:57;;;;;;;0.88;0.88;;;27.10;43.60;;;31.06;28.74;101717.91;5133924;28;20047;-46
2021/06/26 07:40:25;;;;;;;1.00;1.00;;;27.20;43.60;;;31.13;28.77;101724.47;5114219;28;20058;-46
2021/06/26 07:42:51;;;;;;;1.05;1.05;;;27.20;43.50;;;31.12;28.66;101715.50;5133614;28;20047;-51
2021/06/26 07:45:16;;;;;;;0.75;0.75;;;27.30;43.50;;;31.20;28.65;101721.03;5133719;28;20163;-54
2021/06/26 07:47:42;;;;;;;0.90;0.90;;;27.30;43.40;;;31.26;28.51;101719.63;5134041;28;20054;-50
2021/06/26 07:50:08;;;;;;;0.90;0.90;;;27.40;43.30;;;31.29;28.50;101716.66;5134028;28;20066;-47
2021/06/26 07:52:34;;;;;;;0.90;0.90;;;27.40;43.20;;;31.29;28.58;101724.75;5133893;28;20146;-48
2021/06/26 07:55:00;;;;;;;0.80;0.80;;;27.30;43.30;;;31.30;28.40;101721.03;5133548;28;20047;-49
2021/06/26 07:57:26;;;;;;;0.82;0.82;;;27.40;43.30;;;31.34;28.49;101710.78;5133874;28;20100;-46
2021/06/26 07:59:52;;;;;;;0.82;0.82;;;27.40;43.20;;;31.40;28.40;101712.94;5133570;28;20075;-48
2021/06/26 08:02:17;;;;;;;0.90;0.90;;;27.50;43.10;;;31.40;28.43;101708.38;5133627;28;20059;-51
2021/06/26 08:04:43;;;;;;;0.77;0.77;;;27.60;43.00;;;31.52;28.19;101708.25;5133938;28;20462;-50
2021/06/26 08:07:09;;;;;;;0.80;0.80;;;27.60;42.90;;;31.55;28.33;101705.25;5133090;28;20506;-48
2021/06/26 08:09:36;;;;;;;0.70;0.70;;;27.70;42.90;;;31.60;28.09;101704.84;5133601;28;20491;-48
2021/06/26 08:12:05;;;;;;;0.90;0.90;;;27.70;42.80;;;31.64;28.11;101701.69;5133311;28;20051;-48
2021/06/26 08:14:30;;;;;;;0.80;0.80;;;27.70;42.70;;;31.70;28.04;101708.38;5133390;28;20047;-52
2021/06/26 08:16:56;;;;;;;0.80;0.80;;;27.80;42.70;;;31.74;27.83;101707.06;5132939;28;20110;-51
2021/06/26 08:19:22;;;;;;;0.70;0.70;;;27.80;42.60;;;31.76;27.77;101710.50;5133349;28;20047;-52
2021/06/26 08:21:48;;;;;;;0.80;0.80;;;27.80;42.60;;;31.81;27.94;101710.03;5135443;27;20054;-52
2021/06/26 08:24:14;;;;;;;0.65;0.65;;;27.90;42.60;;;31.81;27.87;101696.50;5137023;28;20436;-52
2021/06/26 08:26:40;;;;;;;0.98;0.98;;;27.90;42.50;;;31.82;27.69;101695.53;5137452;28;20043;-52
2021/06/26 08:29:06;;;;;;;0.95;0.95;;;27.90;42.50;;;31.85;27.87;101700.63;5136961;28;20054;-49
2021/06/26 08:31:31;;;;;;;1.00;1.00;;;27.90;42.40;;;31.89;27.70;101704.75;5136627;28;20059;-52
2021/06/26 08:33:57;;;;;;;0.80;0.80;;;28.00;42.50;;;31.90;27.86;101706.47;5136782;28;20051;-53
2021/06/26 08:36:23;;;;;;;0.85;0.85;;;28.00;42.40;;;31.90;27.84;101701.88;5137134;28;20055;-53
2021/06/26 08:38:49;;;;;;;0.70;0.70;;;28.00;42.30;;;31.93;27.60;101698.91;5117900;28;20400;-51
2021/06/26 08:41:20;;;;;;;0.82;0.82;;;28.00;42.20;;;31.98;27.72;101695.75;5136888;28;20180;-49
2021/06/26 08:43:46;;;;;;;0.77;0.77;;;28.10;42.20;;;32.05;27.44;101699.56;5136702;28;20093;-51
2021/06/26 08:46:13;;;;;;;0.80;0.80;;;28.10;42.10;;;32.06;27.68;101705.81;5136592;28;20051;-48
2021/06/26 08:48:39;;;;;;;0.82;0.82;;;28.10;42.00;;;32.07;27.70;101704.84;5116431;28;20047;-53
2021/06/26 08:51:05;;;;;;;0.77;0.77;;;28.10;42.00;;;32.08;27.38;101698.47;5136515;28;20061;-50
2021/06/26 08:53:31;;;;;;;0.90;0.90;;;28.10;42.00;;;32.10;27.31;101696.44;5116673;28;20481;-51
2021/06/26 08:55:57;;;;;;;0.85;0.85;;;28.20;42.00;;;32.08;27.32;101693.03;5136442;28;20124;-48
2021/06/26 08:58:23;;;;;;;1.08;1.00;;;28.20;42.00;;;32.11;27.63;101698.13;5136398;28;20046;-52
2021/06/26 09:00:50;;;;;;;0.80;0.80;;;28.20;42.00;;;32.12;27.33;101703.41;5117808;28;20055;-52
2021/06/26 09:03:21;;;;;;;0.80;0.80;;;28.20;41.90;;;32.10;27.24;101702.69;5136374;28;20133;-46
2021/06/26 09:05:47;;;;;;;0.73;0.73;;;28.20;41.90;;;32.11;27.56;101687.31;5117024;28;20044;-50
2021/06/26 09:08:15;;;;;;;1.10;0.85;;;28.20;41.80;;;32.11;27.48;101696.31;5117844;28;20464;-49
2021/06/26 09:10:44;;;;;;;0.80;0.80;;;28.20;41.90;;;32.08;27.13;101695.75;5136213;28;20423;-50
2021/06/26 09:13:23;;;;;;;0.80;0.80;;;28.20;41.90;;;32.08;27.62;101703.88;5136146;28;20057;-45
2021/06/26 09:16:02;;;;;;;0.85;0.85;;;28.20;41.90;;;32.08;27.17;101707.41;5136153;28;20086;-46
2021/06/26 09:18:28;;;;;;;1.00;1.00;;;28.20;41.90;;;32.06;27.46;101703.09;5136118;28;20096;-45
2021/06/26 09:20:56;;;;;;;0.93;0.93;;;28.20;41.80;;;32.06;27.28;101705.81;5135993;28;20392;-48
2021/06/26 09:23:36;;;;;;;0.80;0.80;;;28.20;41.80;;;32.05;27.50;101701.44;5136030;28;20051;-48
2021/06/26 09:26:10;;;;;;;0.80;0.80;;;28.30;41.80;;;32.05;27.52;101707.69;5136281;28;20047;-49
2021/06/26 09:28:38;;;;;;;0.70;0.70;;;28.30;41.80;;;32.07;27.39;101708.41;5136043;28;20288;-53
2021/06/26 09:31:13;;;;;;;0.70;0.70;;;28.30;41.70;;;32.04;27.49;101699.72;5136135;28;20043;-49
2021/06/26 09:33:39;;;;;;;0.90;0.90;;;28.30;41.70;;;32.09;27.47;101694.72;5135397;27;20066;-51
2021/06/26 09:36:11;;;;;;;0.80;0.80;;;28.30;41.60;;;32.08;27.16;101696.59;5135742;28;20055;-47
2021/06/26 09:38:59;;;;;;;0.80;0.80;;;28.40;41.60;;;32.13;27.13;101702.41;5116599;28;20098;-48
2021/06/26 09:41:26;;;;;;;0.90;0.90;;;28.40;41.60;;;32.16;27.34;101712.09;5135726;28;20126;-47
2021/06/26 09:43:51;;;;;;;0.90;0.90;;;28.40;41.50;;;32.19;27.24;101710.94;5135709;28;20071;-53
2021/06/26 09:46:19;;;;;;;0.70;0.70;;;28.40;41.40;;;32.21;26.92;101704.38;5114442;28;20051;-50
2021/06/26 09:48:59;;;;;;;0.95;0.95;;;28.50;41.50;;;32.20;27.27;101699.13;5135711;28;20051;-51
2021/06/26 09:51:29;;;;;;;0.80;0.80;;;28.50;41.40;;;32.24;27.18;101693.22;5135843;28;20491;-51
2021/06/26 09:54:07;;;;;;;0.73;0.73;;;28.50;41.30;;;32.29;27.33;101706.31;5135397;28;20076;-48
2021/06/26 09:56:45;;;;;;;0.80;0.80;;;28.50;41.30;;;32.26;27.35;101698.50;5135399;28;20051;-53
2021/06/26 09:59:15;;;;;;;1.00;0.90;;;28.60;41.30;;;32.29;27.32;101700.91;5135190;28;20101;-48
2021/06/26 10:01:44;;;;;;;0.90;0.90;;;28.60;41.20;;;32.34;27.12;101703.16;5116189;28;20062;-51
2021/06/26 10:04:16;;;;;;;0.90;0.90;;;28.60;41.20;;;32.31;26.82;101699.75;5135079;28;20407;-50
2021/06/26 10:06:43;;;;;;;1.00;1.00;;;28.60;41.20;;;32.38;27.12;101701.84;5135439;28;20082;-51
2021/06/26 10:09:09;;;;;;;1.05;1.00;;;28.70;41.20;;;32.40;26.92;101702.56;5117374;28;20388;-51
2021/06/26 10:11:37;;;;;;;0.70;0.70;;;28.70;41.20;;;32.39;27.27;101704.41;5135206;28;20043;-50